createdAt,value
2023-01-26T00:01:18.170Z,76.10
2023-01-26T00:03:48.856Z,76.00
2023-01-26T00:06:20.652Z,76.20
2023-01-26T00:08:54.060Z,76.30
2023-01-26T00:11:34.250Z,76.50
2023-01-26T00:14:04.117Z,76.30
2023-01-26T00:16:33.831Z,76.50
2023-01-26T00:19:05.113Z,76.60
2023-01-26T00:21:35.117Z,76.50
2023-01-26T00:24:06.265Z,76.40
2023-01-26T00:26:36.146Z,76.60
2023-01-26T00:29:05.733Z,76.90
2023-01-26T00:31:35.648Z,77.10
2023-01-26T00:34:05.406Z,77.00
2023-01-26T00:36:35.807Z,76.90
2023-01-26T00:39:06.072Z,76.90
2023-01-26T00:41:55.399Z,77.00
2023-01-26T00:44:25.286Z,77.00
2023-01-26T00:46:55.309Z,77.10
2023-01-26T00:49:25.180Z,77.10
2023-01-26T00:51:54.955Z,77.00
2023-01-26T00:54:25.668Z,76.90
2023-01-26T00:56:55.667Z,77.00
2023-01-26T00:59:25.859Z,77.00
2023-01-26T01:01:56.046Z,77.00
2023-01-26T01:04:26.119Z,77.00
2023-01-26T01:06:55.961Z,77.00
2023-01-26T01:09:26.260Z,76.70
2023-01-26T01:11:56.338Z,76.80
2023-01-26T01:14:26.228Z,76.60
2023-01-26T01:16:56.040Z,76.60
2023-01-26T01:19:26.190Z,76.50
2023-01-26T01:21:55.954Z,76.40
2023-01-26T01:24:25.832Z,76.50
2023-01-26T01:26:55.745Z,76.50
2023-01-26T01:29:25.649Z,77.00
2023-01-26T01:31:55.503Z,76.20
2023-01-26T01:34:25.405Z,76.10
2023-01-26T01:36:55.168Z,75.90
2023-01-26T01:39:24.995Z,75.90
2023-01-26T01:41:54.857Z,75.80
2023-01-26T01:44:26.473Z,75.70
2023-01-26T01:47:07.940Z,75.40
2023-01-26T01:49:46.197Z,75.40
2023-01-26T01:52:20.505Z,75.40
2023-01-26T01:55:03.769Z,75.40
2023-01-26T01:57:48.808Z,75.20
2023-01-26T02:00:23.249Z,75.30
2023-01-26T02:03:21.384Z,75.10
2023-01-26T02:06:10.814Z,75.00
2023-01-26T02:08:45.219Z,75.20
2023-01-26T02:11:22.882Z,74.90
2023-01-26T02:13:53.818Z,74.60
2023-01-26T02:16:23.975Z,74.40
2023-01-26T02:18:53.958Z,74.40
2023-01-26T02:21:26.055Z,74.20
2023-01-26T02:24:22.792Z,74.10
2023-01-26T02:26:52.860Z,73.80
2023-01-26T02:29:23.276Z,73.70
2023-01-26T02:31:55.413Z,73.40
2023-01-26T02:34:26.905Z,73.10
2023-01-26T02:37:03.736Z,73.00
2023-01-26T02:40:03.242Z,72.90
2023-01-26T02:42:43.747Z,72.60
2023-01-26T02:45:17.662Z,72.30
2023-01-26T02:47:47.386Z,72.10
2023-01-26T02:50:17.805Z,72.00
2023-01-26T02:52:47.486Z,71.70
2023-01-26T02:55:24.178Z,71.40
2023-01-26T02:57:56.366Z,71.20
2023-01-26T03:00:28.895Z,71.00
2023-01-26T03:03:01.692Z,70.80
2023-01-26T03:05:32.036Z,70.60
2023-01-26T03:08:02.842Z,70.30
2023-01-26T03:10:32.859Z,70.10
2023-01-26T03:13:02.781Z,69.70
2023-01-26T03:15:52.469Z,69.40
2023-01-26T03:18:43.966Z,69.20
2023-01-26T03:21:37.248Z,69.00
2023-01-26T03:24:27.504Z,68.60
2023-01-26T03:27:16.937Z,68.50
2023-01-26T03:29:46.855Z,68.10
2023-01-26T03:32:16.800Z,67.90
2023-01-26T03:34:46.926Z,67.30
2023-01-26T03:37:16.861Z,67.10
2023-01-26T03:40:06.392Z,67.10
2023-01-26T03:42:56.427Z,67.00
2023-01-26T03:45:45.837Z,66.70
2023-01-26T03:48:35.525Z,66.40
2023-01-26T03:51:25.083Z,66.20
2023-01-26T03:54:14.468Z,65.40
2023-01-26T03:56:46.366Z,64.90
2023-01-26T03:59:18.407Z,64.50
2023-01-26T04:02:08.994Z,64.10
2023-01-26T04:04:58.231Z,64.00
2023-01-26T04:07:47.649Z,63.30
2023-01-26T04:10:17.774Z,63.40
2023-01-26T04:12:48.768Z,63.20
2023-01-26T04:15:38.458Z,63.10
2023-01-26T04:18:29.350Z,62.60
2023-01-26T04:21:18.826Z,61.70
2023-01-26T04:23:48.548Z,61.60
2023-01-26T04:26:19.001Z,61.00
2023-01-26T04:28:48.769Z,61.50
2023-01-26T04:31:18.677Z,60.20
2023-01-26T04:33:48.462Z,60.60
2023-01-26T04:36:18.340Z,60.40
2023-01-26T04:38:48.074Z,59.90
2023-01-26T04:41:18.025Z,60.00
2023-01-26T04:43:48.032Z,59.60
2023-01-26T04:46:18.419Z,59.40
2023-01-26T04:48:48.115Z,58.90
2023-01-26T04:51:21.880Z,58.50
2023-01-26T04:53:52.502Z,58.50
2023-01-26T04:56:29.404Z,58.20
2023-01-26T04:59:06.532Z,57.70
2023-01-26T05:01:36.424Z,57.30
2023-01-26T05:04:07.546Z,56.70
2023-01-26T05:06:37.379Z,56.20
2023-01-26T05:09:07.459Z,56.30
2023-01-26T05:11:37.155Z,55.80
2023-01-26T05:14:07.019Z,55.30
2023-01-26T05:16:36.757Z,55.60
2023-01-26T05:19:06.569Z,55.70
2023-01-26T05:21:36.429Z,54.10
2023-01-26T05:24:06.177Z,54.00
2023-01-26T05:26:35.940Z,54.30
2023-01-26T05:29:06.220Z,54.00
2023-01-26T05:31:35.989Z,54.10
2023-01-26T05:34:05.681Z,54.00
2023-01-26T05:36:35.492Z,53.80
2023-01-26T05:39:05.348Z,53.80
2023-01-26T05:41:35.089Z,53.50
2023-01-26T05:44:04.988Z,53.20
2023-01-26T05:46:34.721Z,53.10
2023-01-26T05:49:04.565Z,53.20
2023-01-26T05:51:34.445Z,52.80
2023-01-26T05:54:04.358Z,53.10
2023-01-26T05:56:34.244Z,51.40
2023-01-26T05:59:04.751Z,52.00
2023-01-26T06:01:34.861Z,52.10
2023-01-26T06:04:05.068Z,52.10
2023-01-26T06:06:34.967Z,52.10
2023-01-26T06:09:04.745Z,51.30
2023-01-26T06:11:35.491Z,51.40
2023-01-26T06:14:05.659Z,51.40
2023-01-26T06:16:35.676Z,51.00
2023-01-26T06:19:05.769Z,50.80
2023-01-26T06:21:35.802Z,51.20
2023-01-26T06:24:06.271Z,51.20
2023-01-26T06:26:36.295Z,50.50
2023-01-26T06:29:06.230Z,51.10
2023-01-26T06:31:38.142Z,50.40
2023-01-26T06:34:08.028Z,48.20
2023-01-26T06:36:37.924Z,47.80
2023-01-26T06:39:07.788Z,48.80
2023-01-26T06:41:37.614Z,48.40
2023-01-26T06:44:11.161Z,48.60
2023-01-26T06:46:42.131Z,49.10
2023-01-26T06:49:12.489Z,49.10
2023-01-26T06:51:57.061Z,49.20
2023-01-26T06:54:26.730Z,49.00
2023-01-26T06:56:56.562Z,48.90
2023-01-26T06:59:27.675Z,48.50
2023-01-26T07:01:57.645Z,48.40
2023-01-26T07:04:29.347Z,48.70
2023-01-26T07:06:59.125Z,48.60
2023-01-26T07:09:28.909Z,48.60
2023-01-26T07:11:58.795Z,48.90
2023-01-26T07:14:28.603Z,48.40
2023-01-26T07:16:58.455Z,48.30
2023-01-26T07:19:28.405Z,48.50
2023-01-26T07:21:58.163Z,48.50
2023-01-26T07:24:28.173Z,48.60
2023-01-26T07:26:58.617Z,48.30
2023-01-26T07:29:28.380Z,48.30
2023-01-26T07:31:58.195Z,47.50
2023-01-26T07:34:28.146Z,47.80
2023-01-26T07:36:57.969Z,47.30
2023-01-26T07:39:28.633Z,47.70
2023-01-26T07:41:58.355Z,47.70
2023-01-26T07:44:28.151Z,47.30
2023-01-26T07:46:58.186Z,47.50
2023-01-26T07:49:27.981Z,47.50
2023-01-26T07:51:57.792Z,47.20
2023-01-26T07:54:27.605Z,47.00
2023-01-26T07:56:57.688Z,46.90
2023-01-26T07:59:28.210Z,46.90
2023-01-26T08:01:58.425Z,46.80
2023-01-26T08:04:28.397Z,47.00
2023-01-26T08:06:58.337Z,46.90
2023-01-26T08:09:28.462Z,46.70
2023-01-26T08:12:00.990Z,46.90
2023-01-26T08:14:45.115Z,46.80
2023-01-26T08:17:19.119Z,46.80
2023-01-26T08:19:49.358Z,46.80
2023-01-26T08:22:19.141Z,46.90
2023-01-26T08:24:49.008Z,46.80
2023-01-26T08:27:19.026Z,46.30
2023-01-26T08:29:48.776Z,46.80
2023-01-26T08:32:18.695Z,46.60
2023-01-26T08:34:48.647Z,46.60
2023-01-26T08:37:18.426Z,46.80
2023-01-26T08:39:48.291Z,46.80
2023-01-26T08:42:18.188Z,46.60
2023-01-26T08:44:47.911Z,46.60
2023-01-26T08:47:17.613Z,47.10
2023-01-26T08:49:47.364Z,46.50
2023-01-26T08:52:17.214Z,46.50
2023-01-26T08:54:46.809Z,45.30
2023-01-26T08:57:16.635Z,45.30
2023-01-26T08:59:46.486Z,45.60
2023-01-26T09:02:23.007Z,45.80
2023-01-26T09:04:53.101Z,46.00
2023-01-26T09:07:23.212Z,46.00
2023-01-26T09:09:53.087Z,46.20
2023-01-26T09:12:22.909Z,46.10
2023-01-26T09:14:52.885Z,45.90
2023-01-26T09:17:22.617Z,46.00
2023-01-26T09:19:52.489Z,46.00
2023-01-26T09:22:22.418Z,46.00
2023-01-26T09:24:52.470Z,46.10
2023-01-26T09:27:22.445Z,46.80
2023-01-26T09:29:52.331Z,46.30
2023-01-26T09:32:22.612Z,46.30
2023-01-26T09:34:52.408Z,46.30
2023-01-26T09:37:22.367Z,46.30
2023-01-26T09:39:52.460Z,46.40
2023-01-26T09:42:38.336Z,46.20
2023-01-26T09:45:28.852Z,46.30
2023-01-26T09:48:37.781Z,46.30
2023-01-26T09:51:24.902Z,46.00
2023-01-26T09:54:01.690Z,46.20
2023-01-26T09:56:34.748Z,46.10
2023-01-26T09:59:29.339Z,46.40
2023-01-26T10:02:39.765Z,46.20
2023-01-26T10:05:26.596Z,46.00
2023-01-26T10:07:56.507Z,46.40
2023-01-26T10:10:52.233Z,46.40
2023-01-26T10:13:24.221Z,46.20
2023-01-26T10:16:00.889Z,46.30
2023-01-26T10:18:43.120Z,46.50
2023-01-26T10:21:14.188Z,46.50
2023-01-26T10:23:50.521Z,46.50
2023-01-26T10:26:23.522Z,47.10
2023-01-26T10:28:56.641Z,46.60
2023-01-26T10:31:32.823Z,46.60
2023-01-26T10:34:23.899Z,46.70
2023-01-26T10:36:55.645Z,46.80
2023-01-26T10:39:25.518Z,46.90
2023-01-26T10:42:05.782Z,47.00
2023-01-26T10:44:41.856Z,47.10
2023-01-26T10:47:23.172Z,47.20
2023-01-26T10:49:53.271Z,47.30
2023-01-26T10:52:27.387Z,47.40
2023-01-26T10:55:15.041Z,47.50
2023-01-26T10:57:45.422Z,47.60
2023-01-26T11:00:35.156Z,47.80
2023-01-26T11:03:20.810Z,47.90
2023-01-26T11:06:16.463Z,48.10
2023-01-26T11:08:46.977Z,48.40
2023-01-26T11:11:36.347Z,48.50
2023-01-26T11:14:20.438Z,48.60
2023-01-26T11:17:14.832Z,49.00
2023-01-26T11:20:23.737Z,49.40
2023-01-26T11:23:08.663Z,49.50
2023-01-26T11:26:01.204Z,49.50
2023-01-26T11:28:49.344Z,49.60
2023-01-26T11:31:39.195Z,49.80
2023-01-26T11:34:42.259Z,50.00
2023-01-26T11:37:51.157Z,50.20
2023-01-26T11:41:01.012Z,50.50
2023-01-26T11:44:02.587Z,50.80
2023-01-26T11:47:11.430Z,51.10
2023-01-26T11:50:20.322Z,51.50
2023-01-26T11:53:24.284Z,51.80
2023-01-26T11:56:27.820Z,52.00
2023-01-26T11:59:07.798Z,52.20
2023-01-26T12:01:48.451Z,52.50
2023-01-26T12:04:24.369Z,52.90
2023-01-26T12:07:13.076Z,53.20
2023-01-26T12:09:54.732Z,53.60
2023-01-26T12:12:39.592Z,53.90
2023-01-26T12:15:19.945Z,54.20
2023-01-26T12:18:03.534Z,54.60
2023-01-26T12:21:00.137Z,54.80
2023-01-26T12:23:50.153Z,55.10
2023-01-26T12:26:23.498Z,55.50
2023-01-26T12:29:26.260Z,55.80
2023-01-26T12:32:12.401Z,56.10
2023-01-26T12:34:42.510Z,56.00
2023-01-26T12:37:44.529Z,57.00
2023-01-26T12:40:41.619Z,56.80
2023-01-26T12:43:43.697Z,57.10
2023-01-26T12:46:15.070Z,57.30
2023-01-26T12:48:51.051Z,57.30
2023-01-26T12:51:28.854Z,57.60
2023-01-26T12:54:22.946Z,57.70
2023-01-26T12:56:57.257Z,58.20
2023-01-26T12:59:48.196Z,58.30
2023-01-26T13:02:34.214Z,58.50
2023-01-26T13:05:06.802Z,58.60
2023-01-26T13:07:42.578Z,59.00
2023-01-26T13:10:28.143Z,59.20
2023-01-26T13:13:29.956Z,59.30
2023-01-26T13:16:35.322Z,59.30
2023-01-26T13:19:06.193Z,59.60
2023-01-26T13:21:47.519Z,59.70
2023-01-26T13:24:44.452Z,59.60
2023-01-26T13:27:36.575Z,60.00
2023-01-26T13:30:26.749Z,60.30
2023-01-26T13:33:24.766Z,60.70
2023-01-26T13:35:55.727Z,60.70
2023-01-26T13:38:46.594Z,61.70
2023-01-26T13:41:22.449Z,61.20
2023-01-26T13:43:58.176Z,61.20
2023-01-26T13:46:54.604Z,61.20
2023-01-26T13:49:48.684Z,61.90
2023-01-26T13:52:23.719Z,61.80
2023-01-26T13:54:56.470Z,62.10
2023-01-26T13:57:32.190Z,62.30
2023-01-26T14:00:03.370Z,62.30
2023-01-26T14:02:38.829Z,62.90
2023-01-26T14:05:10.577Z,63.00
2023-01-26T14:07:51.753Z,63.10
2023-01-26T14:10:26.001Z,63.10
2023-01-26T14:13:00.677Z,63.30
2023-01-26T14:15:33.512Z,63.30
2023-01-26T14:18:06.983Z,63.50
2023-01-26T14:20:41.127Z,63.90
2023-01-26T14:23:23.082Z,63.90
2023-01-26T14:26:23.338Z,64.00
2023-01-26T14:28:53.503Z,63.90
2023-01-26T14:31:26.341Z,64.00
2023-01-26T14:34:00.442Z,64.40
2023-01-26T14:36:36.603Z,64.20
2023-01-26T14:39:22.630Z,64.40
2023-01-26T14:41:52.982Z,64.30
2023-01-26T14:44:22.699Z,64.50
2023-01-26T14:47:05.041Z,64.70
2023-01-26T14:49:47.294Z,64.70
2023-01-26T14:52:29.155Z,64.60
2023-01-26T14:55:05.898Z,64.60
2023-01-26T14:57:35.989Z,64.80
2023-01-26T15:00:11.730Z,64.80
2023-01-26T15:02:46.368Z,64.70
2023-01-26T15:05:24.205Z,64.70
2023-01-26T15:08:08.068Z,64.60
2023-01-26T15:10:45.991Z,64.50
2023-01-26T15:13:26.438Z,64.40
2023-01-26T15:16:09.848Z,64.40
2023-01-26T15:18:39.630Z,64.20
2023-01-26T15:21:21.157Z,64.20
2023-01-26T15:23:56.998Z,64.20
2023-01-26T15:26:33.933Z,64.30
2023-01-26T15:29:06.445Z,64.30
2023-01-26T15:31:39.760Z,64.30
2023-01-26T15:34:29.453Z,64.40
2023-01-26T15:37:02.563Z,64.70
2023-01-26T15:39:32.323Z,64.80
2023-01-26T15:42:23.581Z,64.90
2023-01-26T15:44:53.203Z,64.90
2023-01-26T15:47:23.051Z,65.10
2023-01-26T15:49:52.814Z,65.00
2023-01-26T15:52:27.203Z,65.10
2023-01-26T15:54:57.100Z,65.10
2023-01-26T15:57:26.827Z,65.10
2023-01-26T15:59:56.455Z,65.40
2023-01-26T16:02:26.341Z,65.70
2023-01-26T16:04:56.128Z,65.70
2023-01-26T16:07:27.758Z,66.00
2023-01-26T16:10:00.152Z,66.00
2023-01-26T16:12:32.342Z,67.20
2023-01-26T16:15:02.775Z,66.60
2023-01-26T16:17:32.619Z,66.50
2023-01-26T16:20:02.499Z,66.50
2023-01-26T16:22:32.199Z,66.90
2023-01-26T16:25:02.030Z,67.10
2023-01-26T16:27:31.802Z,67.30
2023-01-26T16:30:01.463Z,67.60
2023-01-26T16:32:32.053Z,68.10
2023-01-26T16:35:01.842Z,67.80
2023-01-26T16:37:31.800Z,67.90
2023-01-26T16:40:01.576Z,68.20
2023-01-26T16:42:31.359Z,68.40
2023-01-26T16:45:01.329Z,68.80
2023-01-26T16:47:31.212Z,68.80
2023-01-26T16:50:01.622Z,69.20
2023-01-26T16:52:31.578Z,69.80
2023-01-26T16:55:01.385Z,69.10
2023-01-26T16:57:31.289Z,69.00
2023-01-26T17:00:01.169Z,68.80
2023-01-26T17:02:35.570Z,69.00
2023-01-26T17:05:05.366Z,69.20
2023-01-26T17:07:35.269Z,69.40
2023-01-26T17:10:05.150Z,69.60
2023-01-26T17:12:35.087Z,69.30
2023-01-26T17:15:05.780Z,69.60
2023-01-26T17:17:35.706Z,70.00
2023-01-26T17:20:18.415Z,70.20
2023-01-26T17:22:50.274Z,70.90
2023-01-26T17:25:20.968Z,70.70
2023-01-26T17:27:51.690Z,71.10
2023-01-26T17:30:21.655Z,71.50
2023-01-26T17:32:51.402Z,71.40
2023-01-26T17:35:21.397Z,71.80
2023-01-26T17:37:51.648Z,72.10
2023-01-26T17:40:21.483Z,72.10
2023-01-26T17:42:51.283Z,72.30
2023-01-26T17:45:21.013Z,71.90
2023-01-26T17:47:50.837Z,72.10
2023-01-26T17:50:20.804Z,72.30
2023-01-26T17:52:50.541Z,72.70
2023-01-26T17:55:20.373Z,72.50
2023-01-26T17:57:50.323Z,72.40
2023-01-26T18:00:20.793Z,72.20
2023-01-26T18:02:50.652Z,72.40
2023-01-26T18:05:20.433Z,72.60
2023-01-26T18:07:50.973Z,72.70
2023-01-26T18:10:20.879Z,72.60
2023-01-26T18:12:51.678Z,72.70
2023-01-26T18:15:21.482Z,73.00
2023-01-26T18:17:51.279Z,73.10
2023-01-26T18:20:20.915Z,73.00
2023-01-26T18:22:50.664Z,73.10
2023-01-26T18:25:22.652Z,73.30
2023-01-26T18:27:52.392Z,73.50
2023-01-26T18:30:22.441Z,73.70
2023-01-26T18:32:52.221Z,73.70
2023-01-26T18:35:22.002Z,73.60
2023-01-26T18:37:51.953Z,73.70
2023-01-26T18:40:22.289Z,73.70
2023-01-26T18:42:55.460Z,74.10
2023-01-26T18:45:25.754Z,74.00
2023-01-26T18:47:55.765Z,73.80
2023-01-26T18:50:25.709Z,73.90
2023-01-26T18:52:55.532Z,74.10
2023-01-26T18:55:25.221Z,74.20
2023-01-26T18:57:56.876Z,74.30
2023-01-26T19:00:26.715Z,74.20
2023-01-26T19:02:56.650Z,74.30
2023-01-26T19:05:26.523Z,74.30
2023-01-26T19:07:57.132Z,74.60
2023-01-26T19:10:26.880Z,74.40
2023-01-26T19:12:56.788Z,74.70
2023-01-26T19:15:26.492Z,74.90
2023-01-26T19:17:56.254Z,75.00
2023-01-26T19:20:26.219Z,75.00
2023-01-26T19:22:59.164Z,74.80
2023-01-26T19:25:29.070Z,75.00
2023-01-26T19:27:58.807Z,74.70
2023-01-26T19:30:28.745Z,74.60
2023-01-26T19:33:18.066Z,74.70
2023-01-26T19:35:48.009Z,75.20
2023-01-26T19:38:18.186Z,75.20
2023-01-26T19:40:49.436Z,75.20
2023-01-26T19:43:20.884Z,74.80
2023-01-26T19:45:55.004Z,75.20
2023-01-26T19:48:29.812Z,75.30
2023-01-26T19:51:04.779Z,75.40
2023-01-26T19:53:36.080Z,75.10
2023-01-26T19:56:11.432Z,75.30
2023-01-26T19:58:41.872Z,75.20
2023-01-26T20:01:14.514Z,75.20
2023-01-26T20:03:44.377Z,75.60
2023-01-26T20:06:18.416Z,75.60
2023-01-26T20:08:49.443Z,75.70
2023-01-26T20:11:20.314Z,75.70
2023-01-26T20:13:50.058Z,75.60
2023-01-26T20:16:19.852Z,75.70
2023-01-26T20:18:49.555Z,75.60
2023-01-26T20:21:19.429Z,75.80
2023-01-26T20:23:54.981Z,75.60
2023-01-26T20:26:27.647Z,75.60
2023-01-26T20:28:58.367Z,75.60
2023-01-26T20:31:29.314Z,76.00
2023-01-26T20:34:00.122Z,75.80
2023-01-26T20:36:31.264Z,76.10
2023-01-26T20:39:01.244Z,75.90
2023-01-26T20:41:33.145Z,76.20
2023-01-26T20:44:06.057Z,76.10
2023-01-26T20:46:42.994Z,76.20
2023-01-26T20:49:16.315Z,75.90
2023-01-26T20:51:47.591Z,76.30
2023-01-26T20:54:18.921Z,76.60
2023-01-26T20:56:49.863Z,76.70
2023-01-26T20:59:24.465Z,76.60
2023-01-26T21:01:55.312Z,76.80
2023-01-26T21:04:25.412Z,77.00
2023-01-26T21:06:57.069Z,76.60
2023-01-26T21:09:27.836Z,76.70
2023-01-26T21:11:57.573Z,76.80
2023-01-26T21:14:27.450Z,76.90
2023-01-26T21:16:57.521Z,77.00
2023-01-26T21:19:27.447Z,77.00
2023-01-26T21:21:57.368Z,77.10
2023-01-26T21:24:27.458Z,77.20
2023-01-26T21:26:57.344Z,77.30
2023-01-26T21:29:27.167Z,77.30
2023-01-26T21:31:56.855Z,77.30
2023-01-26T21:34:26.541Z,77.10
2023-01-26T21:36:56.464Z,77.30
2023-01-26T21:39:26.365Z,77.20
2023-01-26T21:41:59.414Z,77.20
2023-01-26T21:44:31.694Z,77.40
2023-01-26T21:47:05.433Z,77.40
2023-01-26T21:49:35.192Z,77.50
2023-01-26T21:52:24.600Z,77.60
2023-01-26T21:54:54.513Z,77.60
2023-01-26T21:57:43.843Z,77.70
2023-01-26T22:00:14.201Z,77.80
2023-01-26T22:02:43.952Z,78.00
2023-01-26T22:05:13.766Z,77.80
2023-01-26T22:07:43.722Z,77.80
2023-01-26T22:10:15.113Z,77.90
2023-01-26T22:12:44.950Z,77.80
2023-01-26T22:15:15.663Z,77.80
2023-01-26T22:17:45.639Z,77.70
2023-01-26T22:20:15.621Z,77.90
2023-01-26T22:22:45.510Z,78.10
2023-01-26T22:25:15.483Z,78.10
2023-01-26T22:27:45.235Z,77.90
2023-01-26T22:30:15.393Z,77.90
2023-01-26T22:32:45.674Z,78.00
2023-01-26T22:35:15.484Z,78.30
2023-01-26T22:37:45.363Z,78.40
2023-01-26T22:40:16.223Z,78.10
2023-01-26T22:42:46.132Z,78.00
2023-01-26T22:45:16.463Z,78.70
2023-01-26T22:47:46.267Z,78.10
2023-01-26T22:50:17.285Z,78.40
2023-01-26T22:52:47.050Z,78.10
2023-01-26T22:55:16.882Z,78.20
2023-01-26T22:57:47.195Z,78.30
2023-01-26T23:00:17.274Z,78.50
2023-01-26T23:02:47.159Z,78.30
2023-01-26T23:05:17.069Z,78.80
2023-01-26T23:07:47.900Z,78.20
2023-01-26T23:10:19.121Z,78.20
2023-01-26T23:12:48.858Z,78.40
2023-01-26T23:15:18.778Z,78.50
2023-01-26T23:17:52.425Z,78.40
2023-01-26T23:20:23.978Z,78.70
2023-01-26T23:22:53.910Z,78.90
2023-01-26T23:25:43.206Z,79.00
2023-01-26T23:28:13.051Z,78.80
2023-01-26T23:30:42.829Z,78.80
2023-01-26T23:33:12.689Z,79.80
2023-01-26T23:35:42.614Z,79.20
2023-01-26T23:38:13.153Z,79.20
2023-01-26T23:40:43.696Z,79.20
2023-01-26T23:43:17.128Z,79.30
2023-01-26T23:45:49.044Z,79.40
2023-01-26T23:48:19.276Z,79.30
2023-01-26T23:50:49.079Z,79.40
2023-01-26T23:53:18.913Z,79.40
2023-01-26T23:55:49.548Z,79.00
2023-01-26T23:58:19.288Z,78.90
